createdAt,value
2023-02-23T00:01:54.803Z,100.00
2023-02-23T00:04:23.678Z,100.00
2023-02-23T00:06:52.429Z,100.00
2023-02-23T00:09:24.641Z,100.00
2023-02-23T00:11:56.078Z,100.00
2023-02-23T00:14:28.169Z,100.00
2023-02-23T00:16:56.887Z,100.00
2023-02-23T00:19:25.866Z,100.00
2023-02-23T00:21:54.659Z,100.00
2023-02-23T00:24:23.419Z,100.00
2023-02-23T00:26:51.805Z,100.00
2023-02-23T00:29:23.835Z,100.00
2023-02-23T00:31:53.297Z,100.00
2023-02-23T00:34:23.847Z,100.00
2023-02-23T00:36:54.514Z,100.00
2023-02-23T00:39:26.911Z,100.00
2023-02-23T00:41:55.957Z,100.00
2023-02-23T00:44:26.274Z,100.00
2023-02-23T00:46:54.492Z,100.00
2023-02-23T00:49:23.710Z,100.00
2023-02-23T00:51:53.121Z,100.00
2023-02-23T00:54:22.970Z,99.33
2023-02-23T00:56:51.927Z,98.83
2023-02-23T00:59:20.730Z,99.80
2023-02-23T01:01:50.698Z,100.00
2023-02-23T01:04:18.893Z,100.00
2023-02-23T01:06:47.405Z,100.00
2023-02-23T01:09:27.278Z,100.00
2023-02-23T01:12:01.700Z,100.00
2023-02-23T01:14:31.378Z,100.00
2023-02-23T01:17:01.620Z,100.00
2023-02-23T01:19:29.924Z,100.00
2023-02-23T01:21:58.090Z,100.00
2023-02-23T01:24:26.263Z,100.00
2023-02-23T01:26:54.699Z,100.00
2023-02-23T01:29:22.855Z,100.00
2023-02-23T01:31:51.999Z,100.00
2023-02-23T01:34:22.846Z,100.00
2023-02-23T01:36:51.137Z,100.00
2023-02-23T01:39:21.628Z,100.00
2023-02-23T01:41:51.934Z,100.00
2023-02-23T01:44:57.340Z,100.00
2023-02-23T01:47:26.889Z,100.00
2023-02-23T01:49:56.511Z,100.00
2023-02-23T01:52:24.833Z,100.00
2023-02-23T01:54:57.118Z,100.00
2023-02-23T01:57:27.149Z,100.00
2023-02-23T01:59:56.375Z,100.00
2023-02-23T02:02:34.034Z,100.00
2023-02-23T02:05:06.597Z,100.00
2023-02-23T02:07:36.407Z,100.00
2023-02-23T02:10:33.679Z,100.00
2023-02-23T02:13:05.936Z,100.00
2023-02-23T02:15:38.970Z,100.00
2023-02-23T02:18:18.853Z,100.00
2023-02-23T02:21:31.776Z,100.00
2023-02-23T02:24:40.499Z,100.00
2023-02-23T02:27:22.311Z,100.00
2023-02-23T02:30:28.762Z,100.00
2023-02-23T02:33:34.641Z,100.00
2023-02-23T02:36:32.211Z,100.00
2023-02-23T02:39:10.780Z,100.00
2023-02-23T02:41:53.445Z,100.00
2023-02-23T02:44:36.349Z,100.00
2023-02-23T02:47:09.463Z,100.00
2023-02-23T02:49:46.284Z,100.00
2023-02-23T02:52:20.587Z,100.00
2023-02-23T02:54:54.531Z,100.00
2023-02-23T02:57:26.723Z,100.00
2023-02-23T03:00:12.615Z,100.00
2023-02-23T03:02:59.565Z,100.00
2023-02-23T03:05:49.721Z,100.00
2023-02-23T03:08:41.419Z,100.00
2023-02-23T03:11:30.432Z,100.00
2023-02-23T03:14:28.666Z,100.00
2023-02-23T03:17:22.368Z,100.00
2023-02-23T03:20:17.180Z,100.00
2023-02-23T03:23:12.156Z,100.00
2023-02-23T03:26:07.738Z,100.00
2023-02-23T03:29:03.047Z,100.00
2023-02-23T03:31:58.884Z,100.00
2023-02-23T03:34:50.637Z,100.00
2023-02-23T03:37:41.212Z,100.00
2023-02-23T03:40:35.413Z,100.00
2023-02-23T03:43:24.568Z,100.00
2023-02-23T03:46:14.889Z,100.00
2023-02-23T03:49:04.551Z,100.00
2023-02-23T03:51:53.432Z,100.00
2023-02-23T03:54:46.367Z,100.00
2023-02-23T03:57:35.255Z,100.00
2023-02-23T04:00:26.130Z,100.00
2023-02-23T04:03:15.578Z,100.00
2023-02-23T04:06:03.717Z,100.00
2023-02-23T04:08:54.311Z,100.00
2023-02-23T04:11:47.410Z,100.00
2023-02-23T04:14:18.690Z,100.00
2023-02-23T04:16:46.995Z,100.00
2023-02-23T04:19:16.665Z,100.00
2023-02-23T04:21:44.788Z,100.00
2023-02-23T04:24:12.900Z,100.00
2023-02-23T04:26:40.938Z,100.00
2023-02-23T04:29:09.137Z,100.00
2023-02-23T04:31:37.398Z,100.00
2023-02-23T04:34:06.217Z,100.00
2023-02-23T04:36:36.415Z,100.00
2023-02-23T04:39:05.001Z,100.00
2023-02-23T04:41:33.138Z,100.00
2023-02-23T04:44:01.389Z,100.00
2023-02-23T04:46:29.528Z,100.00
2023-02-23T04:48:57.688Z,100.00
2023-02-23T04:51:30.286Z,100.00
2023-02-23T04:53:59.842Z,100.00
2023-02-23T04:56:28.144Z,100.00
2023-02-23T04:58:56.431Z,100.00
2023-02-23T05:01:24.775Z,100.00
2023-02-23T05:03:53.000Z,100.00
2023-02-23T05:06:21.217Z,100.00
2023-02-23T05:08:49.632Z,100.00
2023-02-23T05:11:19.505Z,100.00
2023-02-23T05:13:47.781Z,100.00
2023-02-23T05:16:15.956Z,100.00
2023-02-23T05:18:44.293Z,100.00
2023-02-23T05:21:12.672Z,100.00
2023-02-23T05:23:40.915Z,100.00
2023-02-23T05:26:10.877Z,100.00
2023-02-23T05:28:42.350Z,100.00
2023-02-23T05:31:10.694Z,100.00
2023-02-23T05:33:42.672Z,100.00
2023-02-23T05:36:12.137Z,100.00
2023-02-23T05:38:40.798Z,100.00
2023-02-23T05:41:09.421Z,100.00
2023-02-23T05:43:37.853Z,100.00
2023-02-23T05:46:09.449Z,100.00
2023-02-23T05:48:37.872Z,100.00
2023-02-23T05:51:07.730Z,100.00
2023-02-23T05:53:35.875Z,100.00
2023-02-23T05:56:05.349Z,100.00
2023-02-23T05:58:33.824Z,100.00
2023-02-23T06:01:02.122Z,100.00
2023-02-23T06:03:32.091Z,100.00
2023-02-23T06:06:00.594Z,100.00
2023-02-23T06:08:28.819Z,100.00
2023-02-23T06:10:57.027Z,100.00
2023-02-23T06:13:25.098Z,100.00
2023-02-23T06:15:53.333Z,100.00
2023-02-23T06:18:22.310Z,100.00
2023-02-23T06:20:51.885Z,100.00
2023-02-23T06:23:20.287Z,100.00
2023-02-23T06:25:54.524Z,100.00
2023-02-23T06:28:22.695Z,100.00
2023-02-23T06:30:53.580Z,100.00
2023-02-23T06:33:22.556Z,100.00
2023-02-23T06:35:52.693Z,100.00
2023-02-23T06:38:22.205Z,100.00
2023-02-23T06:40:50.294Z,100.00
2023-02-23T06:43:18.400Z,100.00
2023-02-23T06:45:48.060Z,100.00
2023-02-23T06:48:16.184Z,100.00
2023-02-23T06:50:44.884Z,100.00
2023-02-23T06:53:14.468Z,100.00
2023-02-23T06:55:42.690Z,100.00
2023-02-23T06:58:10.903Z,100.00
2023-02-23T07:00:43.031Z,100.00
2023-02-23T07:03:11.988Z,100.00
2023-02-23T07:05:41.094Z,100.00
2023-02-23T07:08:09.298Z,100.00
2023-02-23T07:10:38.886Z,100.00
2023-02-23T07:13:07.011Z,100.00
2023-02-23T07:15:36.848Z,100.00
2023-02-23T07:18:05.094Z,100.00
2023-02-23T07:20:33.476Z,100.00
2023-02-23T07:23:02.103Z,100.00
2023-02-23T07:25:30.507Z,100.00
2023-02-23T07:28:00.233Z,100.00
2023-02-23T07:30:28.429Z,100.00
2023-02-23T07:32:56.589Z,100.00
2023-02-23T07:35:24.726Z,100.00
2023-02-23T07:37:53.951Z,100.00
2023-02-23T07:40:22.200Z,100.00
2023-02-23T07:42:50.401Z,100.00
2023-02-23T07:45:19.942Z,100.00
2023-02-23T07:47:48.166Z,100.00
2023-02-23T07:50:16.260Z,100.00
2023-02-23T07:52:45.986Z,100.00
2023-02-23T07:55:14.236Z,100.00
2023-02-23T07:57:42.371Z,100.00
2023-02-23T08:00:12.493Z,100.00
2023-02-23T08:02:42.304Z,100.00
2023-02-23T08:05:10.811Z,100.00
2023-02-23T08:07:39.074Z,100.00
2023-02-23T08:10:08.192Z,100.00
2023-02-23T08:12:37.025Z,100.00
2023-02-23T08:15:08.481Z,100.00
2023-02-23T08:17:36.681Z,100.00
2023-02-23T08:20:07.596Z,100.00
2023-02-23T08:22:48.497Z,100.00
2023-02-23T08:25:18.052Z,100.00
2023-02-23T08:27:46.362Z,100.00
2023-02-23T08:30:16.120Z,100.00
2023-02-23T08:32:44.286Z,100.00
2023-02-23T08:35:14.236Z,100.00
2023-02-23T08:37:43.114Z,100.00
2023-02-23T08:40:15.720Z,100.00
2023-02-23T08:42:44.016Z,100.00
2023-02-23T08:45:13.395Z,100.00
2023-02-23T08:47:41.792Z,100.00
2023-02-23T08:50:11.436Z,100.00
2023-02-23T08:52:41.531Z,100.00
2023-02-23T08:55:11.841Z,100.00
2023-02-23T08:57:39.993Z,100.00
2023-02-23T09:00:14.286Z,100.00
2023-02-23T09:02:42.873Z,100.00
2023-02-23T09:05:12.151Z,100.00
2023-02-23T09:07:45.283Z,100.00
2023-02-23T09:10:15.639Z,100.00
2023-02-23T09:12:43.835Z,100.00
2023-02-23T09:15:12.970Z,100.00
2023-02-23T09:17:42.982Z,100.00
2023-02-23T09:20:13.799Z,100.00
2023-02-23T09:22:45.587Z,100.00
2023-02-23T09:25:14.644Z,100.00
2023-02-23T09:27:42.716Z,100.00
2023-02-23T09:30:12.728Z,100.00
2023-02-23T09:32:40.901Z,100.00
2023-02-23T09:35:09.863Z,100.00
2023-02-23T09:37:37.985Z,100.00
2023-02-23T09:40:09.870Z,100.00
2023-02-23T09:42:45.638Z,100.00
2023-02-23T09:45:27.470Z,100.00
2023-02-23T09:48:16.833Z,100.00
2023-02-23T09:50:49.181Z,100.00
2023-02-23T09:53:33.866Z,100.00
2023-02-23T09:56:11.854Z,100.00
2023-02-23T09:58:40.183Z,100.00
2023-02-23T10:01:46.419Z,100.00
2023-02-23T10:04:21.880Z,100.00
2023-02-23T10:06:57.642Z,100.00
2023-02-23T10:09:37.578Z,100.00
2023-02-23T10:12:11.197Z,100.00
2023-02-23T10:15:06.603Z,100.00
2023-02-23T10:17:42.167Z,100.00
2023-02-23T10:20:23.334Z,100.00
2023-02-23T10:22:52.693Z,100.00
2023-02-23T10:25:26.655Z,100.00
2023-02-23T10:27:57.614Z,100.00
2023-02-23T10:30:27.263Z,100.00
2023-02-23T10:33:02.658Z,100.00
2023-02-23T10:35:32.226Z,99.77
2023-02-23T10:38:03.286Z,99.52
2023-02-23T10:40:35.748Z,98.40
2023-02-23T10:43:05.381Z,97.70
2023-02-23T10:45:40.603Z,97.47
2023-02-23T10:48:14.581Z,96.96
2023-02-23T10:50:43.996Z,97.03
2023-02-23T10:53:17.290Z,97.32
2023-02-23T10:55:46.810Z,96.89
2023-02-23T10:58:18.994Z,95.75
2023-02-23T11:00:58.117Z,95.80
2023-02-23T11:03:33.411Z,94.02
2023-02-23T11:06:02.508Z,93.56
2023-02-23T11:08:33.485Z,92.59
2023-02-23T11:11:19.427Z,91.80
2023-02-23T11:13:51.197Z,91.18
2023-02-23T11:16:22.226Z,89.24
2023-02-23T11:18:55.453Z,88.35
2023-02-23T11:21:29.536Z,88.15
2023-02-23T11:23:59.710Z,88.00
2023-02-23T11:26:37.711Z,88.17
2023-02-23T11:29:18.831Z,87.07
2023-02-23T11:31:53.291Z,87.19
2023-02-23T11:34:29.055Z,85.96
2023-02-23T11:37:03.213Z,85.87
2023-02-23T11:39:31.337Z,86.20
2023-02-23T11:42:15.237Z,86.34
2023-02-23T11:44:45.255Z,85.30
2023-02-23T11:47:19.066Z,84.95
2023-02-23T11:49:49.435Z,84.99
2023-02-23T11:52:21.209Z,86.36
2023-02-23T11:54:54.145Z,86.78
2023-02-23T11:57:24.376Z,87.07
2023-02-23T11:59:54.544Z,87.84
2023-02-23T12:02:25.990Z,88.71
2023-02-23T12:05:03.656Z,87.18
2023-02-23T12:07:41.858Z,87.77
2023-02-23T12:10:23.144Z,88.73
2023-02-23T12:12:58.486Z,88.66
2023-02-23T12:15:36.632Z,88.47
2023-02-23T12:18:13.331Z,87.59
2023-02-23T12:20:44.794Z,88.44
2023-02-23T12:23:16.997Z,89.56
2023-02-23T12:25:49.012Z,90.23
2023-02-23T12:28:26.180Z,88.91
2023-02-23T12:31:01.368Z,89.83
2023-02-23T12:33:34.626Z,90.00
2023-02-23T12:36:13.053Z,89.62
2023-02-23T12:38:51.291Z,89.82
2023-02-23T12:41:26.587Z,90.57
2023-02-23T12:44:00.971Z,90.06
2023-02-23T12:46:35.581Z,89.67
2023-02-23T12:49:14.002Z,89.88
2023-02-23T12:51:48.415Z,90.03
2023-02-23T12:54:18.651Z,92.22
2023-02-23T12:56:56.034Z,89.62
2023-02-23T12:59:51.582Z,90.33
2023-02-23T13:02:30.878Z,89.96
2023-02-23T13:05:24.703Z,90.66
2023-02-23T13:08:12.698Z,90.42
2023-02-23T13:10:52.454Z,90.98
2023-02-23T13:13:34.538Z,90.55
2023-02-23T13:16:13.037Z,90.97
2023-02-23T13:18:48.681Z,91.00
2023-02-23T13:21:21.940Z,89.74
2023-02-23T13:23:59.885Z,90.17
2023-02-23T13:26:37.144Z,90.41
2023-02-23T13:29:12.183Z,90.80
2023-02-23T13:31:42.981Z,89.71
2023-02-23T13:34:18.368Z,89.81
2023-02-23T13:36:47.177Z,89.95
2023-02-23T13:39:39.407Z,90.27
2023-02-23T13:42:21.586Z,91.29
2023-02-23T13:44:56.716Z,91.40
2023-02-23T13:47:38.284Z,92.21
2023-02-23T13:50:22.626Z,92.28
2023-02-23T13:52:54.249Z,91.18
2023-02-23T13:55:49.823Z,91.37
2023-02-23T13:58:28.884Z,91.23
2023-02-23T14:01:07.160Z,92.23
2023-02-23T14:03:42.399Z,90.78
2023-02-23T14:06:15.310Z,90.44
2023-02-23T14:08:45.745Z,90.69
2023-02-23T14:11:38.688Z,91.30
2023-02-23T14:14:07.217Z,91.96
2023-02-23T14:16:37.239Z,90.91
2023-02-23T14:19:32.195Z,91.28
2023-02-23T14:22:06.780Z,92.02
2023-02-23T14:24:35.088Z,92.03
2023-02-23T14:27:41.857Z,91.64
2023-02-23T14:30:44.774Z,91.53
2023-02-23T14:33:50.721Z,91.70
2023-02-23T14:36:43.254Z,91.67
2023-02-23T14:39:19.245Z,91.72
2023-02-23T14:41:51.863Z,91.18
2023-02-23T14:44:29.995Z,91.08
2023-02-23T14:47:03.703Z,91.59
2023-02-23T14:49:37.007Z,91.59
2023-02-23T14:52:10.106Z,91.42
2023-02-23T14:54:41.415Z,91.15
2023-02-23T14:57:19.115Z,90.60
2023-02-23T14:59:54.287Z,90.42
2023-02-23T15:02:25.356Z,90.76
2023-02-23T15:04:53.542Z,91.03
2023-02-23T15:07:32.216Z,90.06
2023-02-23T15:10:05.381Z,88.97
2023-02-23T15:12:38.031Z,87.92
2023-02-23T15:15:17.104Z,88.15
2023-02-23T15:17:48.149Z,88.06
2023-02-23T15:20:19.094Z,88.86
2023-02-23T15:22:49.783Z,89.62
2023-02-23T15:25:21.576Z,89.81
2023-02-23T15:27:52.009Z,88.46
2023-02-23T15:30:23.276Z,88.75
2023-02-23T15:33:01.108Z,89.29
2023-02-23T15:35:30.571Z,89.53
2023-02-23T15:38:14.226Z,88.47
2023-02-23T15:40:55.747Z,88.75
2023-02-23T15:43:24.683Z,89.10
2023-02-23T15:45:56.008Z,89.42
2023-02-23T15:48:26.369Z,88.87
2023-02-23T15:50:57.710Z,89.04
2023-02-23T15:53:30.429Z,88.92
2023-02-23T15:56:05.155Z,88.51
2023-02-23T15:58:44.453Z,88.04
2023-02-23T16:01:24.950Z,87.76
2023-02-23T16:04:01.886Z,87.58
2023-02-23T16:06:34.737Z,87.06
2023-02-23T16:09:20.024Z,87.28
2023-02-23T16:11:53.074Z,87.01
2023-02-23T16:14:22.811Z,87.26
2023-02-23T16:17:08.494Z,86.97
2023-02-23T16:19:41.308Z,87.11
2023-02-23T16:22:20.004Z,87.31
2023-02-23T16:24:56.637Z,87.67
2023-02-23T16:27:29.007Z,88.51
2023-02-23T16:30:01.327Z,89.02
2023-02-23T16:32:38.194Z,89.62
2023-02-23T16:35:16.902Z,89.86
2023-02-23T16:38:00.367Z,90.30
2023-02-23T16:40:29.015Z,90.94
2023-02-23T16:42:59.703Z,91.11
2023-02-23T16:45:29.776Z,91.23
2023-02-23T16:48:02.515Z,91.31
2023-02-23T16:50:32.719Z,92.15
2023-02-23T16:53:02.217Z,93.79
2023-02-23T16:55:31.225Z,94.53
2023-02-23T16:58:04.049Z,95.45
2023-02-23T17:00:33.933Z,96.31
2023-02-23T17:03:02.272Z,96.41
2023-02-23T17:05:30.994Z,97.21
2023-02-23T17:07:59.380Z,98.10
2023-02-23T17:10:31.278Z,97.59
2023-02-23T17:13:04.511Z,97.72
2023-02-23T17:15:35.522Z,97.81
2023-02-23T17:18:04.053Z,98.13
2023-02-23T17:20:32.846Z,97.96
2023-02-23T17:23:02.718Z,98.59
2023-02-23T17:25:31.307Z,98.38
2023-02-23T17:28:02.353Z,98.11
2023-02-23T17:30:31.128Z,99.34
2023-02-23T17:33:00.969Z,99.79
2023-02-23T17:35:32.717Z,100.00
2023-02-23T17:38:00.970Z,100.00
2023-02-23T17:40:29.689Z,100.00
2023-02-23T17:43:01.356Z,100.00
2023-02-23T17:45:30.424Z,100.00
2023-02-23T17:47:59.568Z,100.00
2023-02-23T17:50:28.371Z,100.00
2023-02-23T17:52:57.462Z,99.75
2023-02-23T17:55:26.845Z,99.37
2023-02-23T17:57:55.137Z,99.50
2023-02-23T18:00:25.394Z,100.00
2023-02-23T18:02:53.797Z,100.00
2023-02-23T18:05:22.533Z,100.00
2023-02-23T18:07:50.739Z,100.00
2023-02-23T18:10:19.450Z,100.00
2023-02-23T18:12:47.636Z,100.00
2023-02-23T18:15:17.516Z,100.00
2023-02-23T18:17:47.419Z,100.00
2023-02-23T18:20:17.138Z,100.00
2023-02-23T18:22:45.756Z,100.00
2023-02-23T18:25:22.049Z,100.00
2023-02-23T18:27:54.120Z,100.00
2023-02-23T18:30:23.553Z,100.00
2023-02-23T18:32:56.556Z,100.00
2023-02-23T18:35:25.171Z,100.00
2023-02-23T18:37:53.379Z,100.00
2023-02-23T18:40:25.941Z,100.00
2023-02-23T18:42:54.075Z,100.00
2023-02-23T18:45:22.303Z,100.00
2023-02-23T18:47:51.592Z,100.00
2023-02-23T18:50:21.804Z,100.00
2023-02-23T18:52:51.502Z,100.00
2023-02-23T18:55:22.360Z,100.00
2023-02-23T18:57:51.085Z,100.00
2023-02-23T19:00:20.498Z,100.00
2023-02-23T19:02:49.283Z,100.00
2023-02-23T19:05:20.874Z,100.00
2023-02-23T19:07:51.408Z,100.00
2023-02-23T19:10:20.245Z,100.00
2023-02-23T19:12:48.463Z,100.00
2023-02-23T19:15:17.634Z,100.00
2023-02-23T19:17:47.543Z,100.00
2023-02-23T19:20:16.298Z,100.00
2023-02-23T19:22:45.903Z,100.00
2023-02-23T19:25:17.007Z,100.00
2023-02-23T19:27:45.248Z,100.00
2023-02-23T19:30:15.052Z,100.00
2023-02-23T19:32:44.566Z,100.00
2023-02-23T19:35:19.463Z,100.00
2023-02-23T19:37:49.407Z,100.00
2023-02-23T19:40:22.914Z,100.00
2023-02-23T19:42:53.399Z,100.00
2023-02-23T19:45:22.537Z,100.00
2023-02-23T19:47:54.274Z,100.00
2023-02-23T19:50:23.621Z,100.00
2023-02-23T19:52:53.019Z,100.00
2023-02-23T19:55:22.895Z,100.00
2023-02-23T19:57:52.761Z,100.00
2023-02-23T20:00:22.456Z,100.00
2023-02-23T20:02:55.718Z,100.00
2023-02-23T20:05:26.226Z,100.00
2023-02-23T20:07:55.720Z,100.00
2023-02-23T20:10:29.224Z,100.00
2023-02-23T20:12:58.448Z,100.00
2023-02-23T20:15:26.877Z,100.00
2023-02-23T20:17:55.627Z,100.00
2023-02-23T20:20:25.953Z,100.00
2023-02-23T20:22:55.547Z,100.00
2023-02-23T20:25:27.310Z,100.00
2023-02-23T20:27:56.073Z,100.00
2023-02-23T20:30:24.601Z,100.00
2023-02-23T20:32:52.858Z,100.00
2023-02-23T20:35:21.483Z,100.00
2023-02-23T20:37:49.754Z,100.00
2023-02-23T20:40:18.849Z,100.00
2023-02-23T20:42:50.156Z,100.00
2023-02-23T20:45:20.923Z,100.00
2023-02-23T20:47:53.151Z,100.00
2023-02-23T20:50:22.925Z,100.00
2023-02-23T20:52:51.769Z,100.00
2023-02-23T20:55:20.885Z,100.00
2023-02-23T20:57:53.445Z,100.00
2023-02-23T21:00:24.402Z,100.00
2023-02-23T21:02:56.378Z,100.00
2023-02-23T21:05:27.702Z,100.00
2023-02-23T21:08:00.138Z,100.00
2023-02-23T21:10:32.038Z,100.00
2023-02-23T21:13:06.054Z,100.00
2023-02-23T21:15:35.292Z,100.00
2023-02-23T21:18:03.534Z,100.00
2023-02-23T21:20:31.895Z,100.00
2023-02-23T21:23:00.645Z,100.00
2023-02-23T21:25:29.804Z,100.00
2023-02-23T21:28:02.016Z,100.00
2023-02-23T21:30:32.044Z,100.00
2023-02-23T21:33:01.353Z,100.00
2023-02-23T21:35:29.920Z,100.00
2023-02-23T21:37:59.509Z,100.00
2023-02-23T21:40:28.034Z,100.00
2023-02-23T21:42:57.292Z,100.00
2023-02-23T21:45:25.581Z,100.00
2023-02-23T21:47:56.066Z,100.00
2023-02-23T21:50:24.360Z,100.00
2023-02-23T21:52:54.188Z,100.00
2023-02-23T21:55:23.601Z,100.00
2023-02-23T21:57:52.781Z,100.00
2023-02-23T22:00:23.028Z,100.00
2023-02-23T22:02:51.833Z,100.00
2023-02-23T22:05:21.691Z,100.00
2023-02-23T22:07:51.225Z,100.00
2023-02-23T22:10:21.488Z,100.00
2023-02-23T22:12:56.053Z,100.00
2023-02-23T22:15:28.507Z,100.00
2023-02-23T22:17:57.167Z,100.00
2023-02-23T22:20:27.006Z,100.00
2023-02-23T22:22:55.199Z,100.00
2023-02-23T22:25:23.416Z,100.00
2023-02-23T22:27:51.551Z,100.00
2023-02-23T22:30:23.029Z,100.00
2023-02-23T22:32:51.698Z,100.00
2023-02-23T22:35:20.104Z,100.00
2023-02-23T22:37:49.858Z,100.00
2023-02-23T22:40:18.586Z,100.00
2023-02-23T22:42:49.362Z,100.00
2023-02-23T22:45:18.262Z,100.00
2023-02-23T22:47:46.548Z,100.00
2023-02-23T22:50:18.143Z,100.00
2023-02-23T22:52:47.595Z,100.00
2023-02-23T22:55:19.390Z,100.00
2023-02-23T22:57:47.784Z,100.00
2023-02-23T23:00:19.833Z,100.00
2023-02-23T23:02:48.444Z,100.00
2023-02-23T23:05:17.628Z,100.00
2023-02-23T23:07:47.754Z,100.00
2023-02-23T23:10:17.847Z,100.00
2023-02-23T23:12:46.812Z,100.00
2023-02-23T23:15:19.063Z,100.00
2023-02-23T23:17:49.349Z,100.00
2023-02-23T23:20:23.071Z,100.00
2023-02-23T23:22:51.274Z,100.00
2023-02-23T23:25:23.209Z,100.00
2023-02-23T23:27:54.010Z,100.00
2023-02-23T23:30:26.149Z,100.00
2023-02-23T23:32:54.559Z,100.00
2023-02-23T23:35:23.152Z,100.00
2023-02-23T23:37:52.157Z,100.00
2023-02-23T23:40:24.603Z,100.00
2023-02-23T23:42:55.934Z,100.00
2023-02-23T23:45:25.354Z,100.00
2023-02-23T23:47:53.505Z,100.00
2023-02-23T23:50:26.917Z,100.00
2023-02-23T23:52:56.825Z,100.00
2023-02-23T23:55:31.086Z,100.00
2023-02-23T23:58:00.429Z,100.00
